sensor_id;sensor_type;location;lat;lon;timestamp;pressure;altitude;pressure_sealevel;temperature;humidity
50368;BME280;36281;34.132;-118.018;2023-02-04T00:00:32;100520.88;;;21.74;25.51
50368;BME280;36281;34.132;-118.018;2023-02-04T00:03:04;100517.34;;;21.68;26.40
50368;BME280;36281;34.132;-118.018;2023-02-04T00:05:35;100528.41;;;21.61;26.97
50368;BME280;36281;34.132;-118.018;2023-02-04T00:08:03;100517.91;;;21.55;26.83
50368;BME280;36281;34.132;-118.018;2023-02-04T00:10:31;100517.59;;;21.46;26.47
50368;BME280;36281;34.132;-118.018;2023-02-04T00:13:00;100514.63;;;21.42;26.77
50368;BME280;36281;34.132;-118.018;2023-02-04T00:15:28;100513.28;;;21.35;26.57
50368;BME280;36281;34.132;-118.018;2023-02-04T00:17:57;100512.19;;;21.31;26.75
50368;BME280;36281;34.132;-118.018;2023-02-04T00:20:25;100504.34;;;21.24;27.31
50368;BME280;36281;34.132;-118.018;2023-02-04T00:22:55;100515.38;;;21.17;27.25
50368;BME280;36281;34.132;-118.018;2023-02-04T00:25:23;100513.75;;;21.11;27.61
50368;BME280;36281;34.132;-118.018;2023-02-04T00:27:52;100519.91;;;21.07;28.11
50368;BME280;36281;34.132;-118.018;2023-02-04T00:30:20;100515.06;;;20.99;28.61
50368;BME280;36281;34.132;-118.018;2023-02-04T00:32:48;100524.72;;;20.89;28.56
50368;BME280;36281;34.132;-118.018;2023-02-04T00:35:21;100516.34;;;20.81;29.04
50368;BME280;36281;34.132;-118.018;2023-02-04T00:37:49;100523.88;;;20.74;28.68
50368;BME280;36281;34.132;-118.018;2023-02-04T00:40:19;100513.88;;;20.69;29.33
50368;BME280;36281;34.132;-118.018;2023-02-04T00:42:48;100522.72;;;20.59;30.70
50368;BME280;36281;34.132;-118.018;2023-02-04T00:45:16;100529.66;;;20.50;30.00
50368;BME280;36281;34.132;-118.018;2023-02-04T00:47:44;100535.56;;;20.47;29.95
50368;BME280;36281;34.132;-118.018;2023-02-04T00:50:12;100539.53;;;20.39;30.52
50368;BME280;36281;34.132;-118.018;2023-02-04T00:52:41;100545.66;;;20.30;30.72
50368;BME280;36281;34.132;-118.018;2023-02-04T00:55:09;100552.06;;;20.24;30.57
50368;BME280;36281;34.132;-118.018;2023-02-04T00:57:40;100550.66;;;20.16;30.65
50368;BME280;36281;34.132;-118.018;2023-02-04T01:00:09;100555.47;;;20.09;30.49
50368;BME280;36281;34.132;-118.018;2023-02-04T01:02:37;100555.13;;;20.00;30.73
50368;BME280;36281;34.132;-118.018;2023-02-04T01:05:07;100548.09;;;19.94;30.61
50368;BME280;36281;34.132;-118.018;2023-02-04T01:07:36;100552.06;;;19.86;30.79
50368;BME280;36281;34.132;-118.018;2023-02-04T01:10:04;100551.47;;;19.79;30.92
50368;BME280;36281;34.132;-118.018;2023-02-04T01:12:32;100548.97;;;19.73;31.99
50368;BME280;36281;34.132;-118.018;2023-02-04T01:15:03;100554.84;;;19.65;32.18
50368;BME280;36281;34.132;-118.018;2023-02-04T01:17:31;100549.06;;;19.56;31.16
50368;BME280;36281;34.132;-118.018;2023-02-04T01:20:00;100553.59;;;19.50;30.98
50368;BME280;36281;34.132;-118.018;2023-02-04T01:22:28;100562.63;;;19.44;31.17
50368;BME280;36281;34.132;-118.018;2023-02-04T01:24:56;100566.34;;;19.38;31.26
50368;BME280;36281;34.132;-118.018;2023-02-04T01:27:24;100564.66;;;19.32;31.45
50368;BME280;36281;34.132;-118.018;2023-02-04T01:29:53;100564.31;;;19.23;32.06
50368;BME280;36281;34.132;-118.018;2023-02-04T01:32:23;100574.19;;;19.18;32.20
50368;BME280;36281;34.132;-118.018;2023-02-04T01:34:51;100581.63;;;19.10;32.17
50368;BME280;36281;34.132;-118.018;2023-02-04T01:37:20;100579.38;;;19.02;32.25
50368;BME280;36281;34.132;-118.018;2023-02-04T01:39:48;100579.31;;;18.97;32.51
50368;BME280;36281;34.132;-118.018;2023-02-04T01:42:16;100584.06;;;18.90;32.50
50368;BME280;36281;34.132;-118.018;2023-02-04T01:44:45;100588.78;;;18.83;32.61
50368;BME280;36281;34.132;-118.018;2023-02-04T01:47:13;100585.47;;;18.76;32.86
50368;BME280;36281;34.132;-118.018;2023-02-04T01:49:43;100582.97;;;18.69;32.61
50368;BME280;36281;34.132;-118.018;2023-02-04T01:52:12;100587.41;;;18.64;32.43
50368;BME280;36281;34.132;-118.018;2023-02-04T01:54:41;100581.44;;;18.56;32.61
50368;BME280;36281;34.132;-118.018;2023-02-04T01:57:09;100581.63;;;18.50;32.87
50368;BME280;36281;34.132;-118.018;2023-02-04T01:59:41;100574.22;;;18.40;32.81
50368;BME280;36281;34.132;-118.018;2023-02-04T02:04:58;100582.53;;;18.22;33.95
50368;BME280;36281;34.132;-118.018;2023-02-04T02:07:26;100581.78;;;18.09;34.77
50368;BME280;36281;34.132;-118.018;2023-02-04T02:09:55;100589.19;;;18.02;34.53
50368;BME280;36281;34.132;-118.018;2023-02-04T02:12:23;100581.78;;;17.93;34.23
50368;BME280;36281;34.132;-118.018;2023-02-04T02:14:51;100589.41;;;17.84;35.43
50368;BME280;36281;34.132;-118.018;2023-02-04T02:17:19;100590.50;;;17.71;35.73
50368;BME280;36281;34.132;-118.018;2023-02-04T02:19:48;100592.19;;;17.61;35.67
50368;BME280;36281;34.132;-118.018;2023-02-04T02:22:19;100589.53;;;17.49;35.75
50368;BME280;36281;34.132;-118.018;2023-02-04T02:24:52;100591.69;;;17.35;36.82
50368;BME280;36281;34.132;-118.018;2023-02-04T02:27:20;100597.81;;;17.19;36.85
50368;BME280;36281;34.132;-118.018;2023-02-04T02:29:49;100604.34;;;17.11;36.58
50368;BME280;36281;34.132;-118.018;2023-02-04T02:32:18;100609.25;;;17.02;36.68
50368;BME280;36281;34.132;-118.018;2023-02-04T02:34:46;100608.56;;;16.95;36.87
50368;BME280;36281;34.132;-118.018;2023-02-04T02:37:14;100604.16;;;16.89;36.88
50368;BME280;36281;34.132;-118.018;2023-02-04T02:39:43;100610.44;;;16.83;37.07
50368;BME280;36281;34.132;-118.018;2023-02-04T02:42:14;100601.16;;;16.74;37.39
50368;BME280;36281;34.132;-118.018;2023-02-04T02:44:43;100604.13;;;16.66;37.47
50368;BME280;36281;34.132;-118.018;2023-02-04T02:47:12;100613.09;;;16.60;37.99
50368;BME280;36281;34.132;-118.018;2023-02-04T02:49:41;100609.38;;;16.49;38.17
50368;BME280;36281;34.132;-118.018;2023-02-04T02:52:10;100607.28;;;16.39;37.61
50368;BME280;36281;34.132;-118.018;2023-02-04T02:54:39;100613.19;;;16.29;37.84
50368;BME280;36281;34.132;-118.018;2023-02-04T02:57:10;100618.91;;;16.21;37.76
50368;BME280;36281;34.132;-118.018;2023-02-04T02:59:40;100601.34;;;16.14;38.91
50368;BME280;36281;34.132;-118.018;2023-02-04T03:02:09;100600.28;;;16.03;38.62
50368;BME280;36281;34.132;-118.018;2023-02-04T03:04:39;100603.06;;;15.96;39.27
50368;BME280;36281;34.132;-118.018;2023-02-04T03:07:08;100600.72;;;15.88;39.24
50368;BME280;36281;34.132;-118.018;2023-02-04T03:09:37;100598.16;;;15.82;38.92
50368;BME280;36281;34.132;-118.018;2023-02-04T03:12:05;100590.22;;;15.75;39.94
50368;BME280;36281;34.132;-118.018;2023-02-04T03:14:34;100591.38;;;15.67;40.78
50368;BME280;36281;34.132;-118.018;2023-02-04T03:17:06;100600.47;;;15.60;40.80
50368;BME280;36281;34.132;-118.018;2023-02-04T03:19:36;100599.75;;;15.52;41.27
50368;BME280;36281;34.132;-118.018;2023-02-04T03:22:04;100594.47;;;15.46;41.79
50368;BME280;36281;34.132;-118.018;2023-02-04T03:24:34;100591.91;;;15.39;41.98
50368;BME280;36281;34.132;-118.018;2023-02-04T03:27:02;100597.09;;;15.34;42.57
50368;BME280;36281;34.132;-118.018;2023-02-04T03:29:30;100596.81;;;15.24;42.80
50368;BME280;36281;34.132;-118.018;2023-02-04T03:32:00;100601.22;;;15.18;43.13
50368;BME280;36281;34.132;-118.018;2023-02-04T03:34:31;100598.84;;;15.10;44.10
50368;BME280;36281;34.132;-118.018;2023-02-04T03:36:59;100609.81;;;15.02;44.47
50368;BME280;36281;34.132;-118.018;2023-02-04T03:39:27;100602.91;;;14.94;44.27
50368;BME280;36281;34.132;-118.018;2023-02-04T03:41:56;100606.47;;;14.88;43.99
50368;BME280;36281;34.132;-118.018;2023-02-04T03:44:24;100617.88;;;14.77;45.07
50368;BME280;36281;34.132;-118.018;2023-02-04T03:46:53;100626.16;;;14.69;45.25
50368;BME280;36281;34.132;-118.018;2023-02-04T03:49:22;100626.44;;;14.61;45.62
50368;BME280;36281;34.132;-118.018;2023-02-04T03:51:52;100629.16;;;14.54;46.21
50368;BME280;36281;34.132;-118.018;2023-02-04T03:54:20;100629.03;;;14.42;46.16
50368;BME280;36281;34.132;-118.018;2023-02-04T03:56:48;100623.56;;;14.37;46.57
50368;BME280;36281;34.132;-118.018;2023-02-04T03:59:17;100613.00;;;14.24;47.14
50368;BME280;36281;34.132;-118.018;2023-02-04T04:01:45;100617.50;;;14.23;46.68
50368;BME280;36281;34.132;-118.018;2023-02-04T04:04:13;100618.38;;;14.17;47.58
50368;BME280;36281;34.132;-118.018;2023-02-04T04:06:41;100620.66;;;14.14;47.52
50368;BME280;36281;34.132;-118.018;2023-02-04T04:09:11;100619.44;;;14.10;47.21
50368;BME280;36281;34.132;-118.018;2023-02-04T04:11:39;100617.22;;;14.07;47.37
50368;BME280;36281;34.132;-118.018;2023-02-04T04:14:08;100612.75;;;14.01;48.06
50368;BME280;36281;34.132;-118.018;2023-02-04T04:16:36;100622.66;;;13.93;48.13
50368;BME280;36281;34.132;-118.018;2023-02-04T04:19:04;100627.81;;;13.88;48.49
50368;BME280;36281;34.132;-118.018;2023-02-04T04:21:32;100632.34;;;13.81;48.78
50368;BME280;36281;34.132;-118.018;2023-02-04T04:24:00;100635.03;;;13.75;48.93
50368;BME280;36281;34.132;-118.018;2023-02-04T04:26:30;100631.41;;;13.69;49.00
50368;BME280;36281;34.132;-118.018;2023-02-04T04:28:59;100630.41;;;13.63;49.28
50368;BME280;36281;34.132;-118.018;2023-02-04T04:31:27;100626.53;;;13.59;49.33
50368;BME280;36281;34.132;-118.018;2023-02-04T04:33:55;100626.34;;;13.54;49.44
50368;BME280;36281;34.132;-118.018;2023-02-04T04:36:24;100618.19;;;13.49;49.34
50368;BME280;36281;34.132;-118.018;2023-02-04T04:38:52;100610.88;;;13.38;49.73
50368;BME280;36281;34.132;-118.018;2023-02-04T04:41:20;100626.22;;;13.36;49.94
50368;BME280;36281;34.132;-118.018;2023-02-04T04:43:50;100624.81;;;13.33;50.01
50368;BME280;36281;34.132;-118.018;2023-02-04T04:46:18;100613.38;;;13.26;50.11
50368;BME280;36281;34.132;-118.018;2023-02-04T04:48:46;100618.91;;;13.18;50.37
50368;BME280;36281;34.132;-118.018;2023-02-04T04:51:15;100615.66;;;13.09;50.66
50368;BME280;36281;34.132;-118.018;2023-02-04T04:53:43;100623.84;;;13.08;50.50
50368;BME280;36281;34.132;-118.018;2023-02-04T04:56:11;100622.81;;;13.02;50.50
50368;BME280;36281;34.132;-118.018;2023-02-04T04:58:39;100635.13;;;12.97;50.80
50368;BME280;36281;34.132;-118.018;2023-02-04T05:01:09;100637.59;;;12.91;50.96
50368;BME280;36281;34.132;-118.018;2023-02-04T05:03:38;100632.06;;;12.86;51.17
50368;BME280;36281;34.132;-118.018;2023-02-04T05:06:06;100629.66;;;12.78;51.57
50368;BME280;36281;34.132;-118.018;2023-02-04T05:08:35;100626.81;;;12.73;51.70
50368;BME280;36281;34.132;-118.018;2023-02-04T05:11:04;100635.19;;;12.70;51.78
50368;BME280;36281;34.132;-118.018;2023-02-04T05:13:32;100638.66;;;12.64;51.27
50368;BME280;36281;34.132;-118.018;2023-02-04T05:16:00;100640.91;;;12.60;52.21
50368;BME280;36281;34.132;-118.018;2023-02-04T05:18:30;100638.06;;;12.55;52.14
50368;BME280;36281;34.132;-118.018;2023-02-04T05:20:58;100648.25;;;12.52;51.76
50368;BME280;36281;34.132;-118.018;2023-02-04T05:23:27;100648.06;;;12.47;51.51
50368;BME280;36281;34.132;-118.018;2023-02-04T05:25:55;100650.94;;;12.45;51.85
50368;BME280;36281;34.132;-118.018;2023-02-04T05:28:25;100655.00;;;12.41;52.69
50368;BME280;36281;34.132;-118.018;2023-02-04T05:30:53;100651.94;;;12.37;52.95
50368;BME280;36281;34.132;-118.018;2023-02-04T05:33:21;100648.09;;;12.33;52.66
50368;BME280;36281;34.132;-118.018;2023-02-04T05:35:51;100651.72;;;12.32;53.12
50368;BME280;36281;34.132;-118.018;2023-02-04T05:38:19;100658.28;;;12.30;53.24
50368;BME280;36281;34.132;-118.018;2023-02-04T05:40:48;100659.31;;;12.29;53.20
50368;BME280;36281;34.132;-118.018;2023-02-04T05:43:16;100650.94;;;12.25;53.47
50368;BME280;36281;34.132;-118.018;2023-02-04T05:45:44;100642.75;;;12.20;53.40
50368;BME280;36281;34.132;-118.018;2023-02-04T05:48:12;100648.66;;;12.15;53.59
50368;BME280;36281;34.132;-118.018;2023-02-04T05:50:41;100655.00;;;12.14;53.49
50368;BME280;36281;34.132;-118.018;2023-02-04T05:53:11;100651.94;;;12.11;53.98
50368;BME280;36281;34.132;-118.018;2023-02-04T05:55:39;100654.16;;;12.07;54.16
50368;BME280;36281;34.132;-118.018;2023-02-04T05:58:07;100655.41;;;12.05;54.45
50368;BME280;36281;34.132;-118.018;2023-02-04T06:00:35;100660.28;;;12.01;53.90
50368;BME280;36281;34.132;-118.018;2023-02-04T06:03:04;100658.88;;;11.99;54.04
50368;BME280;36281;34.132;-118.018;2023-02-04T06:05:32;100662.94;;;11.95;54.25
50368;BME280;36281;34.132;-118.018;2023-02-04T06:08:00;100661.50;;;11.92;54.60
50368;BME280;36281;34.132;-118.018;2023-02-04T06:10:30;100665.38;;;11.89;54.39
50368;BME280;36281;34.132;-118.018;2023-02-04T06:12:59;100664.75;;;11.87;54.39
50368;BME280;36281;34.132;-118.018;2023-02-04T06:15:27;100660.66;;;11.85;54.74
50368;BME280;36281;34.132;-118.018;2023-02-04T06:17:55;100663.88;;;11.80;54.83
50368;BME280;36281;34.132;-118.018;2023-02-04T06:20:25;100674.88;;;11.77;55.27
50368;BME280;36281;34.132;-118.018;2023-02-04T06:22:53;100672.00;;;11.72;55.38
50368;BME280;36281;34.132;-118.018;2023-02-04T06:25:21;100674.44;;;11.67;56.08
50368;BME280;36281;34.132;-118.018;2023-02-04T06:27:51;100677.69;;;11.62;56.49
50368;BME280;36281;34.132;-118.018;2023-02-04T06:30:19;100683.59;;;11.58;56.41
50368;BME280;36281;34.132;-118.018;2023-02-04T06:32:48;100687.84;;;11.52;56.77
50368;BME280;36281;34.132;-118.018;2023-02-04T06:35:16;100691.75;;;11.50;55.95
50368;BME280;36281;34.132;-118.018;2023-02-04T06:37:44;100698.44;;;11.46;55.99
50368;BME280;36281;34.132;-118.018;2023-02-04T06:40:13;100699.84;;;11.42;56.74
50368;BME280;36281;34.132;-118.018;2023-02-04T06:42:41;100700.44;;;11.37;56.69
50368;BME280;36281;34.132;-118.018;2023-02-04T06:45:11;100703.69;;;11.32;56.89
50368;BME280;36281;34.132;-118.018;2023-02-04T06:47:39;100704.47;;;11.26;56.86
50368;BME280;36281;34.132;-118.018;2023-02-04T06:50:08;100698.94;;;11.21;56.72
50368;BME280;36281;34.132;-118.018;2023-02-04T06:52:37;100698.31;;;11.19;57.15
50368;BME280;36281;34.132;-118.018;2023-02-04T06:55:05;100703.19;;;11.16;57.23
50368;BME280;36281;34.132;-118.018;2023-02-04T06:57:33;100704.22;;;11.15;57.32
50368;BME280;36281;34.132;-118.018;2023-02-04T07:00:01;100696.63;;;11.11;57.83
50368;BME280;36281;34.132;-118.018;2023-02-04T07:02:31;100705.81;;;11.09;57.41
50368;BME280;36281;34.132;-118.018;2023-02-04T07:05:00;100691.31;;;11.05;57.59
50368;BME280;36281;34.132;-118.018;2023-02-04T07:07:28;100691.31;;;11.05;57.40
50368;BME280;36281;34.132;-118.018;2023-02-04T07:09:56;100689.63;;;11.04;57.37
50368;BME280;36281;34.132;-118.018;2023-02-04T07:12:24;100696.97;;;11.02;57.74
50368;BME280;36281;34.132;-118.018;2023-02-04T07:14:53;100696.53;;;10.98;57.78
50368;BME280;36281;34.132;-118.018;2023-02-04T07:17:21;100703.25;;;10.94;57.85
50368;BME280;36281;34.132;-118.018;2023-02-04T07:19:51;100697.72;;;10.89;58.20
50368;BME280;36281;34.132;-118.018;2023-02-04T07:22:20;100697.28;;;10.85;58.54
50368;BME280;36281;34.132;-118.018;2023-02-04T07:24:48;100694.81;;;10.84;57.77
50368;BME280;36281;34.132;-118.018;2023-02-04T07:27:16;100694.38;;;10.80;58.29
50368;BME280;36281;34.132;-118.018;2023-02-04T07:29:44;100697.63;;;10.76;58.67
50368;BME280;36281;34.132;-118.018;2023-02-04T07:32:13;100692.69;;;10.73;58.75
50368;BME280;36281;34.132;-118.018;2023-02-04T07:34:41;100683.09;;;10.72;58.49
50368;BME280;36281;34.132;-118.018;2023-02-04T07:37:11;100679.19;;;10.68;58.54
50368;BME280;36281;34.132;-118.018;2023-02-04T07:39:39;100683.06;;;10.65;58.49
50368;BME280;36281;34.132;-118.018;2023-02-04T07:42:07;100691.38;;;10.62;59.04
50368;BME280;36281;34.132;-118.018;2023-02-04T07:44:35;100684.81;;;10.58;59.10
50368;BME280;36281;34.132;-118.018;2023-02-04T07:47:04;100693.78;;;10.57;58.72
50368;BME280;36281;34.132;-118.018;2023-02-04T07:49:32;100692.94;;;10.50;59.15
50368;BME280;36281;34.132;-118.018;2023-02-04T07:52:01;100687.19;;;10.46;59.83
50368;BME280;36281;34.132;-118.018;2023-02-04T07:54:31;100682.09;;;10.45;59.91
50368;BME280;36281;34.132;-118.018;2023-02-04T07:56:59;100677.16;;;10.42;60.46
50368;BME280;36281;34.132;-118.018;2023-02-04T07:59:27;100686.69;;;10.36;60.07
50368;BME280;36281;34.132;-118.018;2023-02-04T08:01:55;100684.63;;;10.31;60.14
50368;BME280;36281;34.132;-118.018;2023-02-04T08:04:24;100677.03;;;10.28;60.25
50368;BME280;36281;34.132;-118.018;2023-02-04T08:06:52;100674.78;;;10.25;59.97
50368;BME280;36281;34.132;-118.018;2023-02-04T08:09:20;100682.63;;;10.19;60.66
50368;BME280;36281;34.132;-118.018;2023-02-04T08:11:50;100675.44;;;10.13;60.72
50368;BME280;36281;34.132;-118.018;2023-02-04T08:14:18;100676.66;;;10.10;60.45
50368;BME280;36281;34.132;-118.018;2023-02-04T08:16:46;100683.94;;;10.08;60.71
50368;BME280;36281;34.132;-118.018;2023-02-04T08:19:15;100672.94;;;10.04;60.51
50368;BME280;36281;34.132;-118.018;2023-02-04T08:21:45;100673.28;;;10.01;60.60
50368;BME280;36281;34.132;-118.018;2023-02-04T08:24:14;100673.66;;;9.98;60.78
50368;BME280;36281;34.132;-118.018;2023-02-04T08:26:43;100670.41;;;9.96;61.11
50368;BME280;36281;34.132;-118.018;2023-02-04T08:29:13;100678.53;;;9.95;61.18
50368;BME280;36281;34.132;-118.018;2023-02-04T08:31:41;100681.34;;;9.93;61.39
50368;BME280;36281;34.132;-118.018;2023-02-04T08:34:09;100671.16;;;9.90;61.57
50368;BME280;36281;34.132;-118.018;2023-02-04T08:36:38;100676.81;;;9.87;61.94
50368;BME280;36281;34.132;-118.018;2023-02-04T08:39:06;100665.78;;;9.83;61.92
50368;BME280;36281;34.132;-118.018;2023-02-04T08:41:34;100666.78;;;9.82;62.06
50368;BME280;36281;34.132;-118.018;2023-02-04T08:44:02;100661.03;;;9.79;62.24
50368;BME280;36281;34.132;-118.018;2023-02-04T08:46:32;100650.84;;;9.76;62.25
50368;BME280;36281;34.132;-118.018;2023-02-04T08:49:01;100657.31;;;9.73;62.23
50368;BME280;36281;34.132;-118.018;2023-02-04T08:51:29;100649.56;;;9.72;62.12
50368;BME280;36281;34.132;-118.018;2023-02-04T08:53:57;100650.94;;;9.68;62.37
50368;BME280;36281;34.132;-118.018;2023-02-04T08:56:25;100646.06;;;9.65;62.62
50368;BME280;36281;34.132;-118.018;2023-02-04T08:58:54;100639.28;;;9.62;62.47
50368;BME280;36281;34.132;-118.018;2023-02-04T09:01:22;100642.13;;;9.61;62.37
50368;BME280;36281;34.132;-118.018;2023-02-04T09:03:52;100641.31;;;9.60;62.48
50368;BME280;36281;34.132;-118.018;2023-02-04T09:06:20;100635.19;;;9.59;62.41
50368;BME280;36281;34.132;-118.018;2023-02-04T09:08:48;100637.41;;;9.56;62.98
50368;BME280;36281;34.132;-118.018;2023-02-04T09:11:16;100633.47;;;9.52;63.20
50368;BME280;36281;34.132;-118.018;2023-02-04T09:13:45;100635.50;;;9.50;62.93
50368;BME280;36281;34.132;-118.018;2023-02-04T09:16:13;100635.88;;;9.47;62.89
50368;BME280;36281;34.132;-118.018;2023-02-04T09:18:41;100636.06;;;9.45;63.09
50368;BME280;36281;34.132;-118.018;2023-02-04T09:21:11;100633.56;;;9.44;63.07
50368;BME280;36281;34.132;-118.018;2023-02-04T09:23:39;100627.88;;;9.40;62.58
50368;BME280;36281;34.132;-118.018;2023-02-04T09:26:08;100630.88;;;9.37;62.61
50368;BME280;36281;34.132;-118.018;2023-02-04T09:28:36;100628.41;;;9.36;62.61
50368;BME280;36281;34.132;-118.018;2023-02-04T09:31:04;100630.78;;;9.30;62.66
50368;BME280;36281;34.132;-118.018;2023-02-04T09:33:33;100626.31;;;9.31;62.27
50368;BME280;36281;34.132;-118.018;2023-02-04T09:36:01;100629.13;;;9.29;62.19
50368;BME280;36281;34.132;-118.018;2023-02-04T09:38:32;100630.97;;;9.29;62.24
50368;BME280;36281;34.132;-118.018;2023-02-04T09:41:01;100616.66;;;9.23;62.49
50368;BME280;36281;34.132;-118.018;2023-02-04T09:43:30;100626.88;;;9.26;62.25
50368;BME280;36281;34.132;-118.018;2023-02-04T09:45:59;100624.78;;;9.22;62.42
50368;BME280;36281;34.132;-118.018;2023-02-04T09:48:28;100620.66;;;9.19;62.66
50368;BME280;36281;34.132;-118.018;2023-02-04T09:51:00;100625.31;;;9.17;62.61
50368;BME280;36281;34.132;-118.018;2023-02-04T09:53:32;100620.59;;;9.13;62.56
50368;BME280;36281;34.132;-118.018;2023-02-04T09:56:01;100613.66;;;9.12;62.58
50368;BME280;36281;34.132;-118.018;2023-02-04T09:58:30;100615.66;;;9.10;62.52
50368;BME280;36281;34.132;-118.018;2023-02-04T10:01:09;100618.50;;;9.08;62.78
50368;BME280;36281;34.132;-118.018;2023-02-04T10:03:39;100608.31;;;9.05;63.01
50368;BME280;36281;34.132;-118.018;2023-02-04T10:06:13;100620.25;;;9.01;63.09
50368;BME280;36281;34.132;-118.018;2023-02-04T10:08:44;100621.22;;;9.00;62.99
50368;BME280;36281;34.132;-118.018;2023-02-04T10:11:13;100620.13;;;8.94;63.27
50368;BME280;36281;34.132;-118.018;2023-02-04T10:13:43;100622.34;;;8.91;63.39
50368;BME280;36281;34.132;-118.018;2023-02-04T10:16:13;100625.16;;;8.89;63.42
50368;BME280;36281;34.132;-118.018;2023-02-04T10:18:42;100618.41;;;8.87;63.68
50368;BME280;36281;34.132;-118.018;2023-02-04T10:21:12;100623.03;;;8.85;63.66
50368;BME280;36281;34.132;-118.018;2023-02-04T10:23:41;100615.13;;;8.85;63.91
50368;BME280;36281;34.132;-118.018;2023-02-04T10:26:12;100619.16;;;8.80;63.90
50368;BME280;36281;34.132;-118.018;2023-02-04T10:28:40;100628.06;;;8.79;63.72
50368;BME280;36281;34.132;-118.018;2023-02-04T10:34:01;100612.75;;;8.75;63.87
50368;BME280;36281;34.132;-118.018;2023-02-04T10:36:29;100615.97;;;8.70;64.18
50368;BME280;36281;34.132;-118.018;2023-02-04T10:39:00;100608.38;;;8.67;64.46
50368;BME280;36281;34.132;-118.018;2023-02-04T10:41:30;100610.41;;;8.65;64.19
50368;BME280;36281;34.132;-118.018;2023-02-04T10:44:03;100613.03;;;8.65;63.97
50368;BME280;36281;34.132;-118.018;2023-02-04T10:46:32;100610.56;;;8.64;64.20
50368;BME280;36281;34.132;-118.018;2023-02-04T10:49:02;100605.66;;;8.61;64.30
50368;BME280;36281;34.132;-118.018;2023-02-04T10:51:31;100605.00;;;8.59;64.05
50368;BME280;36281;34.132;-118.018;2023-02-04T10:54:00;100593.00;;;8.56;64.26
50368;BME280;36281;34.132;-118.018;2023-02-04T10:56:48;100594.97;;;8.54;64.23
50368;BME280;36281;34.132;-118.018;2023-02-04T10:59:19;100600.25;;;8.54;64.49
50368;BME280;36281;34.132;-118.018;2023-02-04T11:01:50;100592.72;;;8.51;64.70
50368;BME280;36281;34.132;-118.018;2023-02-04T11:04:18;100585.97;;;8.48;65.22
50368;BME280;36281;34.132;-118.018;2023-02-04T11:06:46;100591.44;;;8.47;65.20
50368;BME280;36281;34.132;-118.018;2023-02-04T11:09:15;100590.78;;;8.45;65.35
50368;BME280;36281;34.132;-118.018;2023-02-04T11:11:48;100584.06;;;8.42;65.12
50368;BME280;36281;34.132;-118.018;2023-02-04T11:14:20;100585.22;;;8.40;65.23
50368;BME280;36281;34.132;-118.018;2023-02-04T11:16:49;100586.56;;;8.36;65.33
50368;BME280;36281;34.132;-118.018;2023-02-04T11:19:29;100585.91;;;8.34;65.54
50368;BME280;36281;34.132;-118.018;2023-02-04T11:22:03;100583.81;;;8.29;65.79
50368;BME280;36281;34.132;-118.018;2023-02-04T11:24:32;100583.81;;;8.29;65.93
50368;BME280;36281;34.132;-118.018;2023-02-04T11:27:06;100590.28;;;8.26;65.88
50368;BME280;36281;34.132;-118.018;2023-02-04T11:29:36;100586.34;;;8.22;66.09
50368;BME280;36281;34.132;-118.018;2023-02-04T11:32:25;100590.00;;;8.21;66.03
50368;BME280;36281;34.132;-118.018;2023-02-04T11:34:53;100579.78;;;8.18;65.84
50368;BME280;36281;34.132;-118.018;2023-02-04T11:37:36;100570.22;;;8.17;65.99
50368;BME280;36281;34.132;-118.018;2023-02-04T11:40:20;100569.75;;;8.14;66.32
50368;BME280;36281;34.132;-118.018;2023-02-04T11:42:51;100574.41;;;8.12;66.59
50368;BME280;36281;34.132;-118.018;2023-02-04T11:45:23;100573.59;;;8.11;65.98
50368;BME280;36281;34.132;-118.018;2023-02-04T11:47:52;100575.56;;;8.09;66.51
50368;BME280;36281;34.132;-118.018;2023-02-04T11:50:24;100575.94;;;8.06;66.44
50368;BME280;36281;34.132;-118.018;2023-02-04T11:52:53;100573.47;;;8.04;66.18
50368;BME280;36281;34.132;-118.018;2023-02-04T11:55:21;100568.38;;;8.03;66.10
50368;BME280;36281;34.132;-118.018;2023-02-04T11:57:52;100568.72;;;8.00;66.43
50368;BME280;36281;34.132;-118.018;2023-02-04T12:00:21;100567.09;;;7.99;66.85
50368;BME280;36281;34.132;-118.018;2023-02-04T12:02:50;100562.81;;;7.98;66.80
50368;BME280;36281;34.132;-118.018;2023-02-04T12:05:21;100556.53;;;7.99;66.68
50368;BME280;36281;34.132;-118.018;2023-02-04T12:07:50;100566.25;;;7.98;66.69
50368;BME280;36281;34.132;-118.018;2023-02-04T12:10:22;100564.97;;;7.94;66.74
50368;BME280;36281;34.132;-118.018;2023-02-04T12:12:53;100569.44;;;7.94;67.05
50368;BME280;36281;34.132;-118.018;2023-02-04T12:15:24;100562.72;;;7.91;67.17
50368;BME280;36281;34.132;-118.018;2023-02-04T12:18:01;100567.50;;;7.88;67.27
50368;BME280;36281;34.132;-118.018;2023-02-04T12:20:29;100566.88;;;7.86;67.26
50368;BME280;36281;34.132;-118.018;2023-02-04T12:22:57;100566.22;;;7.84;67.12
50368;BME280;36281;34.132;-118.018;2023-02-04T12:25:26;100567.56;;;7.80;67.78
50368;BME280;36281;34.132;-118.018;2023-02-04T12:27:56;100572.84;;;7.80;67.28
50368;BME280;36281;34.132;-118.018;2023-02-04T12:30:25;100566.94;;;7.77;67.29
50368;BME280;36281;34.132;-118.018;2023-02-04T12:32:53;100576.66;;;7.77;67.92
50368;BME280;36281;34.132;-118.018;2023-02-04T12:35:21;100576.66;;;7.77;67.41
50368;BME280;36281;34.132;-118.018;2023-02-04T12:37:50;100574.19;;;7.75;67.50